Time;durP1;ratioP1;P1;durP2;ratioP2;P2;SDS_P1;SDS_P2;PMS_P1;PMS_P2;Temp;Humidity;BMP_temperature;BMP_pressure;BME280_temperature;BME280_humidity;BME280_pressure;Samples;Min_cycle;Max_cycle;Signal;HPM_P1;HPM_P2
2021/06/26 00:00:54;;;;;;;22.40;10.18;;;;;;;21.76;76.29;100344.63;1744605;82;21139;-72
2021/06/26 00:03:23;;;;;;;18.15;10.65;;;;;;;21.76;76.22;100341.45;1744429;80;20931;-71
2021/06/26 00:05:50;;;;;;;24.92;11.22;;;;;;;21.75;75.91;100339.80;1744350;80;20917;-72
2021/06/26 00:08:17;;;;;;;25.40;10.10;;;;;;;21.73;75.58;100339.14;1744713;82;21411;-72
2021/06/26 00:10:44;;;;;;;25.70;10.32;;;;;;;21.72;75.47;100340.12;1744614;80;20889;-71
2021/06/26 00:13:11;;;;;;;21.48;10.13;;;;;;;21.70;75.58;100339.49;1744780;82;21087;-70
2021/06/26 00:15:39;;;;;;;19.85;9.90;;;;;;;21.68;75.68;100346.84;1744544;81;21410;-70
2021/06/26 00:18:06;;;;;;;21.82;9.93;;;;;;;21.66;75.56;100354.18;1744697;82;20842;-71
2021/06/26 00:20:33;;;;;;;22.93;10.98;;;;;;;21.64;75.51;100356.19;1744590;82;21374;-70
2021/06/26 00:23:00;;;;;;;19.12;10.35;;;;;;;21.60;75.66;100354.34;1744665;82;21481;-70
2021/06/26 00:25:26;;;;;;;27.15;11.50;;;;;;;21.58;75.98;100352.86;1744675;81;21581;-71
2021/06/26 00:27:53;;;;;;;25.48;10.63;;;;;;;21.57;76.09;100353.88;1744620;82;20830;-71
2021/06/26 00:30:21;;;;;;;29.67;10.20;;;;;;;21.56;75.95;100357.02;1744712;81;20979;-71
2021/06/26 00:32:48;;;;;;;19.73;10.38;;;;;;;21.56;75.87;100365.53;1744569;82;20971;-70
2021/06/26 00:35:15;;;;;;;27.45;10.80;;;;;;;21.53;75.84;100354.19;1744657;82;20877;-71
2021/06/26 00:37:43;;;;;;;22.95;10.70;;;;;;;21.51;75.95;100352.19;1744623;82;20925;-71
2021/06/26 00:40:12;;;;;;;28.83;12.65;;;;;;;21.49;76.32;100350.19;1744523;82;20932;-71
2021/06/26 00:42:40;;;;;;;27.10;10.10;;;;;;;21.50;76.54;100342.53;1744632;82;20933;-70
2021/06/26 00:45:09;;;;;;;29.60;11.63;;;;;;;21.49;76.36;100340.86;1744623;82;20928;-72
2021/06/26 00:47:37;;;;;;;27.35;10.40;;;;;;;21.46;76.46;100339.05;1744656;81;20897;-71
2021/06/26 00:50:13;;;;;;;21.35;9.80;;;;;;;21.43;76.70;100338.89;1744682;82;21131;-71
2021/06/26 00:52:39;;;;;;;26.68;10.70;;;;;;;21.40;77.10;100343.18;1744564;82;21429;-72
2021/06/26 00:55:07;;;;;;;24.63;11.22;;;;;;;21.38;77.44;100346.52;1744675;82;20905;-71
2021/06/26 00:57:36;;;;;;;30.77;11.75;;;;;;;21.37;77.59;100348.04;1744477;81;20873;-70
2021/06/26 01:00:06;;;;;;;19.17;10.00;;;;;;;21.38;77.87;100349.19;1744809;82;20905;-71
2021/06/26 01:02:33;;;;;;;24.40;11.00;;;;;;;21.41;77.82;100348.89;1744911;81;21873;-71
2021/06/26 01:04:59;;;;;;;23.75;10.45;;;;;;;21.44;77.77;100349.88;1744479;80;21549;-71
2021/06/26 01:07:26;;;;;;;29.95;10.82;;;;;;;21.46;77.54;100341.20;1744837;82;20893;-72
2021/06/26 01:09:53;;;;;;;36.00;11.38;;;;;;;21.49;77.04;100348.03;1744650;82;20968;-71
2021/06/26 01:12:20;;;;;;;26.68;11.50;;;;;;;21.49;76.59;100343.52;1744554;82;20948;-71
2021/06/26 01:14:49;;;;;;;26.25;9.90;;;;;;;21.50;76.35;100351.05;1744653;82;21845;-71
2021/06/26 01:17:16;;;;;;;22.02;10.68;;;;;;;21.49;76.31;100342.19;1759320;81;20920;-71
2021/06/26 01:19:43;;;;;;;21.30;10.98;;;;;;;21.47;76.63;100348.70;1744554;82;20952;-71
2021/06/26 01:22:10;;;;;;;23.25;10.72;;;;;;;21.44;76.76;100343.72;1744947;80;20940;-71
2021/06/26 01:24:37;;;;;;;22.95;10.38;;;;;;;21.41;76.86;100345.37;1759130;81;20858;-70
2021/06/26 01:27:05;;;;;;;22.50;10.85;;;;;;;21.37;77.06;100348.04;1744958;82;21500;-70
2021/06/26 01:29:32;;;;;;;20.68;11.18;;;;;;;21.33;77.13;100352.87;1744568;82;20869;-71
2021/06/26 01:31:59;;;;;;;25.88;11.30;;;;;;;21.31;77.10;100357.53;1744507;80;20945;-71
2021/06/26 01:34:26;;;;;;;21.48;8.45;;;;;;;21.29;76.97;100366.20;1744732;81;20937;-70
2021/06/26 01:36:53;;;;;;;21.02;10.43;;;;;;;21.26;76.86;100366.55;1744843;82;20881;-70
2021/06/26 01:39:20;;;;;;;24.07;9.88;;;;;;;21.24;77.01;100372.05;1744650;81;21142;-71
2021/06/26 01:41:46;;;;;;;24.82;9.80;;;;;;;21.22;77.30;100370.55;1744853;81;20925;-71
2021/06/26 01:44:14;;;;;;;17.00;9.38;;;;;;;21.20;77.33;100374.70;1744577;81;21397;-71
2021/06/26 01:46:41;;;;;;;22.42;9.93;;;;;;;21.19;77.10;100376.20;1744743;80;20988;-70
2021/06/26 01:49:13;;;;;;;18.55;9.65;;;;;;;21.17;76.96;100376.39;1744671;81;20976;-71
2021/06/26 01:51:40;;;;;;;25.50;9.80;;;;;;;21.14;76.88;100373.20;1744486;81;21130;-72
2021/06/26 01:54:08;;;;;;;27.22;10.70;;;;;;;21.11;77.03;100371.20;1744628;80;20956;-72
2021/06/26 01:56:37;;;;;;;25.75;12.18;;;;;;;21.09;77.17;100369.71;1744447;81;21417;-71
2021/06/26 01:59:04;;;;;;;32.58;12.68;;;;;;;21.06;77.20;100370.88;1744626;80;20865;-71
2021/06/26 02:01:32;;;;;;;26.77;11.95;;;;;;;21.05;77.50;100368.38;1744588;82;20925;-70
2021/06/26 02:04:00;;;;;;;39.45;11.45;;;;;;;21.01;77.59;100363.89;1744584;82;21177;-70
2021/06/26 02:06:27;;;;;;;35.40;11.73;;;;;;;20.98;77.65;100362.87;1744452;81;20842;-71
2021/06/26 02:08:55;;;;;;;35.55;13.30;;;;;;;20.94;77.76;100364.20;1744617;81;21354;-70
2021/06/26 02:11:21;;;;;;;33.33;11.30;;;;;;;20.91;77.90;100363.21;1744495;82;20925;-71
2021/06/26 02:13:48;;;;;;;35.17;12.30;;;;;;;20.89;78.41;100355.37;1744604;82;21039;-71
2021/06/26 02:16:15;;;;;;;41.15;12.47;;;;;;;20.93;78.65;100358.55;1744611;82;21086;-71
2021/06/26 02:18:44;;;;;;;18.07;10.53;;;;;;;20.96;78.30;100356.05;1744574;81;21389;-71
2021/06/26 02:21:11;;;;;;;28.38;10.63;;;;;;;20.98;78.05;100358.87;1744715;82;21370;-72
2021/06/26 02:23:39;;;;;;;24.25;10.58;;;;;;;21.00;77.94;100360.88;1744613;82;20853;-72
2021/06/26 02:26:06;;;;;;;21.97;10.28;;;;;;;21.00;77.79;100366.20;1744568;82;20884;-70
2021/06/26 02:28:33;;;;;;;28.32;11.20;;;;;;;20.98;78.13;100367.38;1744466;82;21120;-70
2021/06/26 02:31:00;;;;;;;25.12;10.60;;;;;;;20.99;78.16;100361.06;1744579;81;20889;-71
2021/06/26 02:33:27;;;;;;;23.27;8.43;;;;;;;21.01;78.00;100363.03;1744619;82;20932;-72
2021/06/26 02:35:54;;;;;;;28.05;9.70;;;;;;;21.05;77.84;100365.70;1744568;82;20928;-71
2021/06/26 02:38:20;;;;;;;24.50;9.88;;;;;;;21.07;77.71;100364.53;1744687;82;20956;-71
2021/06/26 02:40:48;;;;;;;20.92;10.70;;;;;;;21.08;77.60;100367.55;1744642;81;21497;-70
2021/06/26 02:43:15;;;;;;;22.45;9.03;;;;;;;21.11;77.67;100367.71;1744471;82;20838;-70
2021/06/26 02:45:41;;;;;;;24.67;10.65;;;;;;;21.14;77.74;100364.70;1744608;81;20961;-71
2021/06/26 02:48:09;;;;;;;32.73;12.07;;;;;;;21.17;77.91;100370.23;1744569;81;21023;-70
2021/06/26 02:50:36;;;;;;;33.25;14.10;;;;;;;21.19;78.11;100369.53;1744555;82;20889;-71
2021/06/26 02:53:03;;;;;;;34.70;15.38;;;;;;;21.19;78.08;100369.05;1744553;82;21482;-70
2021/06/26 02:55:30;;;;;;;41.15;16.45;;;;;;;21.22;77.78;100367.38;1744445;82;21366;-71
2021/06/26 02:57:57;;;;;;;33.38;16.85;;;;;;;21.27;77.46;100367.70;1750538;81;20931;-70
2021/06/26 03:00:25;;;;;;;38.53;14.07;;;;;;;21.31;77.34;100364.20;1757858;80;20978;-70
2021/06/26 03:02:52;;;;;;;40.40;15.23;;;;;;;21.36;77.24;100368.52;1758003;81;20896;-70
2021/06/26 03:05:18;;;;;;;39.85;12.55;;;;;;;21.43;77.31;100363.38;1758012;81;21140;-70
2021/06/26 03:07:51;;;;;;;33.02;11.90;;;;;;;21.50;77.32;100363.05;1757744;81;20916;-70
2021/06/26 03:10:18;;;;;;;39.38;10.90;;;;;;;21.57;77.27;100355.20;1757692;80;20995;-70
2021/06/26 03:12:47;;;;;;;27.22;11.68;;;;;;;21.64;77.06;100352.18;1757893;81;20924;-69
2021/06/26 03:15:14;;;;;;;31.45;12.58;;;;;;;21.72;76.93;100350.33;1757839;81;20948;-69
2021/06/26 03:17:41;;;;;;;33.90;12.68;;;;;;;21.81;76.80;100355.62;1757960;81;21124;-70
2021/06/26 03:20:08;;;;;;;30.15;11.53;;;;;;;21.87;76.63;100351.75;1757861;81;20853;-69
2021/06/26 03:22:35;;;;;;;25.68;11.25;;;;;;;21.94;76.46;100351.42;1757844;81;20886;-69
2021/06/26 03:25:04;;;;;;;22.30;10.55;;;;;;;22.01;76.20;100344.89;1757909;81;20940;-70
2021/06/26 03:27:32;;;;;;;31.70;10.78;;;;;;;22.07;76.15;100342.01;1757983;80;21402;-69
2021/06/26 03:29:58;;;;;;;33.92;13.53;;;;;;;22.10;76.27;100335.83;1757836;81;21142;-69
2021/06/26 03:32:25;;;;;;;35.60;12.55;;;;;;;22.15;76.20;100339.31;1757927;81;21390;-69
2021/06/26 03:34:52;;;;;;;25.65;12.73;;;;;;;22.19;76.21;100337.95;1757916;81;20975;-71
2021/06/26 03:37:19;;;;;;;21.75;11.35;;;;;;;22.24;76.20;100330.27;1757756;81;20987;-71
2021/06/26 03:39:45;;;;;;;33.42;12.95;;;;;;;22.26;76.38;100338.95;1757907;81;20881;-70
2021/06/26 03:42:12;;;;;;;33.42;13.28;;;;;;;22.30;76.33;100354.13;1757764;81;21152;-71
2021/06/26 03:44:39;;;;;;;33.18;13.45;;;;;;;22.30;76.17;100356.81;1757822;81;20955;-70
2021/06/26 03:47:06;;;;;;;36.93;13.13;;;;;;;22.34;76.52;100357.61;1757770;80;20946;-71
2021/06/26 03:49:36;;;;;;;39.75;14.20;;;;;;;22.44;76.30;100352.55;1757876;81;20968;-71
2021/06/26 03:52:01;;;;;;;44.42;14.70;;;;;;;22.55;76.11;100356.16;1757891;81;20928;-71
2021/06/26 03:54:28;;;;;;;28.32;13.70;;;;;;;22.65;75.80;100350.05;1757816;81;21797;-72
2021/06/26 03:56:55;;;;;;;36.03;14.33;;;;;;;22.79;75.47;100350.30;1758228;81;20877;-71
2021/06/26 03:59:22;;;;;;;37.70;13.10;;;;;;;22.91;75.32;100351.55;1757769;81;20975;-71
2021/06/26 04:01:50;;;;;;;31.85;12.47;;;;;;;23.07;75.16;100351.44;1757794;81;20979;-71
2021/06/26 04:04:19;;;;;;;36.98;13.30;;;;;;;23.26;74.92;100346.10;1757793;80;20924;-71
2021/06/26 04:06:47;;;;;;;28.50;12.07;;;;;;;23.49;74.44;100351.90;1758033;81;21125;-72
2021/06/26 04:09:14;;;;;;;20.75;11.80;;;;;;;23.70;73.93;100349.82;1757683;81;20885;-71
2021/06/26 04:12:29;;;;;;;33.35;11.88;;;;;;;24.09;73.40;100345.54;1816506;79;22508;-70
2021/06/26 04:14:57;;;;;;;27.77;11.68;;;;;;;24.44;72.99;100339.05;1789511;80;20939;-71
2021/06/26 04:17:25;;;;;;;21.62;11.43;;;;;;;24.93;71.86;100337.49;1789572;80;21565;-70
2021/06/26 04:19:52;;;;;;;30.55;11.97;;;;;;;25.43;70.53;100330.25;1789468;80;20892;-70
2021/06/26 04:22:19;;;;;;;28.65;11.68;;;;;;;25.91;69.30;100334.38;1789522;80;21490;-70
2021/06/26 04:24:46;;;;;;;27.45;10.50;;;;;;;26.35;68.09;100332.28;1789551;80;21031;-70
2021/06/26 04:27:13;;;;;;;32.93;10.85;;;;;;;26.73;66.83;100332.59;1789406;80;20876;-70
2021/06/26 04:29:40;;;;;;;22.90;9.78;;;;;;;27.14;65.64;100323.48;1789470;80;21128;-70
2021/06/26 04:32:08;;;;;;;22.67;10.32;;;;;;;27.52;64.37;100326.05;1789359;80;21436;-71
2021/06/26 04:34:35;;;;;;;22.87;12.25;;;;;;;27.86;63.56;100314.19;1789580;80;20840;-70
2021/06/26 04:37:02;;;;;;;27.10;10.40;;;;;;;28.18;62.44;100315.05;1789399;79;20896;-70
2021/06/26 04:39:29;;;;;;;19.45;9.08;;;;;;;28.46;61.08;100307.95;1789418;80;21453;-70
2021/06/26 04:41:57;;;;;;;26.70;10.48;;;;;;;28.73;60.26;100300.52;1789514;80;21153;-71
2021/06/26 04:44:24;;;;;;;28.38;11.60;;;;;;;28.98;59.42;100295.64;1789471;80;20919;-71
2021/06/26 04:46:52;;;;;;;24.70;10.98;;;;;;;29.19;58.54;100295.78;1789446;80;20939;-72
2021/06/26 04:49:19;;;;;;;26.10;10.65;;;;;;;29.43;57.83;100298.67;1789316;80;21417;-71
2021/06/26 04:51:46;;;;;;;26.70;11.30;;;;;;;29.65;57.28;100292.30;1789300;80;20928;-71
2021/06/26 04:54:13;;;;;;;24.05;11.05;;;;;;;29.89;57.22;100291.40;1789451;79;21126;-72
2021/06/26 04:56:40;;;;;;;32.03;11.57;;;;;;;30.19;55.99;100297.34;1789266;80;20931;-72
2021/06/26 04:59:07;;;;;;;22.98;10.63;;;;;;;30.45;55.31;100289.94;1789364;80;20924;-71
2021/06/26 05:01:34;;;;;;;25.05;10.60;;;;;;;30.72;54.80;100288.98;1789320;80;20884;-72
2021/06/26 05:04:01;;;;;;;30.12;11.15;;;;;;;30.93;54.53;100284.94;1789462;80;20878;-73
2021/06/26 05:06:28;;;;;;;33.02;11.63;;;;;;;31.14;54.08;100287.03;1789365;80;21568;-71
2021/06/26 05:08:58;;;;;;;32.05;11.08;;;;;;;31.35;54.21;100284.27;1789381;80;20940;-71
2021/06/26 05:11:24;;;;;;;22.15;11.95;;;;;;;31.61;53.93;100286.18;1755365;80;20893;-72
2021/06/26 05:13:51;;;;;;;25.17;10.63;;;;;;;31.86;53.35;100283.69;1776160;80;21424;-71
2021/06/26 05:16:18;;;;;;;26.23;12.43;;;;;;;32.09;52.72;100281.47;1775889;80;20932;-71
2021/06/26 05:18:45;;;;;;;28.65;12.43;;;;;;;32.33;52.22;100280.28;1776289;80;22165;-72
2021/06/26 05:21:14;;;;;;;27.05;11.88;;;;;;;32.59;51.82;100276.16;1775823;80;20849;-71
2021/06/26 05:23:41;;;;;;;29.15;11.88;;;;;;;32.80;50.55;100271.86;1775344;80;20947;-72
2021/06/26 05:26:09;;;;;;;34.98;12.30;;;;;;;33.01;50.26;100277.59;1775252;80;20955;-71
2021/06/26 05:28:38;;;;;;;28.90;13.10;;;;;;;33.23;49.21;100277.67;1775597;80;20971;-71
2021/06/26 05:31:05;;;;;;;28.47;13.13;;;;;;;33.33;47.96;100272.38;1774678;80;21240;-72
2021/06/26 05:33:33;;;;;;;29.42;13.00;;;;;;;33.42;47.38;100272.77;1775205;80;21477;-73
2021/06/26 05:35:59;;;;;;;32.70;13.62;;;;;;;33.46;47.13;100267.09;1775227;80;20960;-72
2021/06/26 05:38:26;;;;;;;30.97;13.53;;;;;;;33.54;46.35;100268.56;1775572;80;21497;-72
2021/06/26 05:40:53;;;;;;;29.25;12.50;;;;;;;33.61;45.71;100259.16;1775475;80;20884;-72
2021/06/26 05:43:20;;;;;;;42.00;13.30;;;;;;;33.81;45.12;100260.47;1775416;80;21975;-71
2021/06/26 05:45:48;;;;;;;35.55;13.08;;;;;;;34.01;44.79;100256.59;1774949;80;20920;-73
2021/06/26 05:48:15;;;;;;;37.90;11.85;;;;;;;34.22;44.67;100250.05;1775810;80;21306;-73
2021/06/26 05:50:42;;;;;;;39.38;13.72;;;;;;;34.38;43.39;100250.45;1775319;80;21430;-73
2021/06/26 05:53:09;;;;;;;36.80;9.98;;;;;;;34.55;42.97;100244.04;1775551;80;20976;-72
2021/06/26 05:55:36;;;;;;;28.50;11.48;;;;;;;34.72;42.87;100242.58;1775264;80;21128;-74
2021/06/26 05:58:05;;;;;;;34.85;11.43;;;;;;;34.94;42.98;100243.81;1775327;80;21504;-73
2021/06/26 06:00:35;;;;;;;27.32;10.45;;;;;;;35.08;42.04;100249.06;1775577;80;21029;-71
2021/06/26 06:03:02;;;;;;;30.95;11.80;;;;;;;35.16;41.65;100247.78;1775254;80;21067;-72
2021/06/26 06:05:30;;;;;;;28.45;11.55;;;;;;;35.14;42.34;100245.86;1775321;80;20976;-73
2021/06/26 06:07:57;;;;;;;27.90;10.78;;;;;;;35.27;42.46;100250.84;1775325;80;21104;-72
2021/06/26 06:10:25;;;;;;;29.32;10.03;;;;;;;35.52;42.55;100260.22;1775272;80;20861;-72
2021/06/26 06:12:52;;;;;;;30.37;10.05;;;;;;;35.74;41.95;100259.50;1775166;80;20889;-72
2021/06/26 06:15:21;;;;;;;26.42;11.05;;;;;;;36.02;41.76;100265.04;1775307;80;20916;-73
2021/06/26 06:17:48;;;;;;;24.57;8.88;;;;;;;36.08;41.32;100269.39;1775437;80;20940;-73
2021/06/26 06:20:14;;;;;;;24.15;9.60;;;;;;;36.02;40.40;100262.83;1775560;80;21389;-73
2021/06/26 06:22:43;;;;;;;20.43;8.25;;;;;;;35.76;41.23;100261.42;1775303;80;20849;-72
2021/06/26 06:25:12;;;;;;;21.82;9.20;;;;;;;35.44;42.07;100256.92;1775487;80;20992;-74
2021/06/26 06:27:41;;;;;;;28.38;8.98;;;;;;;35.05;42.54;100248.23;1775175;80;20999;-73
2021/06/26 06:30:09;;;;;;;22.98;7.17;;;;;;;34.67;43.41;100250.98;1775447;80;21366;-72
2021/06/26 06:32:37;;;;;;;29.25;10.53;;;;;;;34.35;44.35;100254.22;1775379;80;21872;-72
2021/06/26 06:35:05;;;;;;;22.27;9.50;;;;;;;34.04;44.96;100245.22;1775405;80;20881;-72
2021/06/26 06:37:32;;;;;;;21.87;7.37;;;;;;;33.78;45.96;100234.60;1775359;80;21342;-73
2021/06/26 06:39:59;;;;;;;30.05;7.90;;;;;;;33.55;46.28;100232.96;1775399;80;21019;-72
2021/06/26 06:42:26;;;;;;;26.25;9.33;;;;;;;33.51;47.03;100225.02;1775074;80;21501;-72
2021/06/26 06:44:53;;;;;;;27.82;7.95;;;;;;;33.63;46.98;100220.83;1775464;80;21051;-72
2021/06/26 06:47:20;;;;;;;21.20;7.85;;;;;;;33.93;46.76;100233.11;1775217;80;21034;-72
2021/06/26 06:49:47;;;;;;;27.62;8.93;;;;;;;34.28;46.70;100225.03;1775648;80;21522;-74
2021/06/26 06:52:14;;;;;;;22.58;7.90;;;;;;;34.65;46.81;100222.37;1775172;80;20896;-73
2021/06/26 06:54:41;;;;;;;22.25;8.40;;;;;;;35.08;46.12;100223.16;1775563;80;20932;-73
2021/06/26 06:57:08;;;;;;;27.37;7.85;;;;;;;35.58;44.74;100223.69;1775322;80;21136;-72
2021/06/26 06:59:35;;;;;;;23.50;7.58;;;;;;;36.06;43.59;100221.62;1775190;80;20849;-73
2021/06/26 07:02:02;;;;;;;21.97;6.67;;;;;;;36.59;42.54;100217.28;1775563;80;20924;-73
2021/06/26 07:04:29;;;;;;;26.95;7.53;;;;;;;36.96;41.01;100210.13;1775366;80;21409;-71
2021/06/26 07:06:57;;;;;;;24.35;7.95;;;;;;;37.24;41.17;100204.60;1775218;80;20833;-72
2021/06/26 07:09:26;;;;;;;15.23;6.05;;;;;;;37.25;40.17;100206.22;1775287;80;21990;-71
2021/06/26 07:11:52;;;;;;;25.25;5.62;;;;;;;37.17;39.99;100211.45;1778244;80;21391;-72
2021/06/26 07:14:19;;;;;;;24.80;6.22;;;;;;;36.93;39.36;100201.94;1783437;80;20888;-72
2021/06/26 07:16:48;;;;;;;22.32;6.00;;;;;;;36.68;39.24;100202.80;1783464;80;20983;-72
2021/06/26 07:19:14;;;;;;;24.82;5.75;;;;;;;36.41;39.84;100199.55;1783578;80;20931;-71
2021/06/26 07:21:42;;;;;;;25.72;7.10;;;;;;;36.22;40.18;100204.73;1783477;80;22014;-73
2021/06/26 07:24:09;;;;;;;20.55;5.72;;;;;;;36.01;40.40;100204.69;1783460;80;20967;-77
2021/06/26 07:26:36;;;;;;;21.33;6.75;;;;;;;35.88;41.02;100204.67;1783547;80;20959;-75
2021/06/26 07:29:04;;;;;;;17.42;6.12;;;;;;;35.93;41.16;100203.88;1783490;80;20900;-78
2021/06/26 07:31:31;;;;;;;20.68;7.80;;;;;;;35.89;41.35;100203.59;1783472;80;21365;-77
2021/06/26 07:33:58;;;;;;;21.80;6.67;;;;;;;35.82;41.01;100201.67;1783355;80;21098;-76
2021/06/26 07:36:27;;;;;;;12.55;5.05;;;;;;;35.66;41.85;100198.11;1783297;80;20892;-73
2021/06/26 07:38:55;;;;;;;26.48;7.08;;;;;;;35.49;41.62;100191.47;1783327;80;20912;-74
2021/06/26 07:41:22;;;;;;;16.87;6.40;;;;;;;35.40;42.03;100192.27;1783488;80;21046;-74
2021/06/26 07:43:49;;;;;;;18.90;6.90;;;;;;;35.29;42.36;100191.41;1783557;80;20888;-74
2021/06/26 07:46:18;;;;;;;27.00;7.15;;;;;;;35.34;42.32;100189.23;1783798;80;21848;-74
2021/06/26 07:48:46;;;;;;;20.85;7.85;;;;;;;35.43;42.51;100189.00;1783568;80;20927;-72
2021/06/26 07:51:13;;;;;;;22.10;6.53;;;;;;;35.51;42.95;100189.84;1783834;80;20864;-70
2021/06/26 07:53:41;;;;;;;20.32;6.67;;;;;;;35.45;42.73;100189.00;1783421;80;21346;-69
2021/06/26 07:56:08;;;;;;;14.30;5.87;;;;;;;35.32;43.08;100189.50;1783794;80;20884;-72
2021/06/26 07:58:34;;;;;;;24.23;6.15;;;;;;;35.20;43.63;100190.28;1783517;80;21126;-72
2021/06/26 08:01:01;;;;;;;17.45;6.08;;;;;;;35.07;44.74;100189.64;1783347;80;20920;-68
2021/06/26 08:03:28;;;;;;;22.00;6.10;;;;;;;34.90;44.85;100195.00;1783896;80;20979;-69
2021/06/26 08:05:55;;;;;;;21.35;6.10;;;;;;;34.68;44.56;100186.42;1783579;80;20877;-68
2021/06/26 08:08:22;;;;;;;16.10;5.50;;;;;;;34.52;45.40;100183.30;1783824;80;20852;-68
2021/06/26 08:10:50;;;;;;;18.40;5.58;;;;;;;34.38;46.01;100181.02;1783523;80;22006;-71
2021/06/26 08:13:19;;;;;;;18.73;5.67;;;;;;;34.29;46.37;100177.70;1776406;80;20905;-69
2021/06/26 08:15:46;;;;;;;24.23;6.12;;;;;;;34.27;45.96;100172.50;1775013;80;20948;-71
2021/06/26 08:18:15;;;;;;;21.90;5.67;;;;;;;34.26;46.48;100181.22;1775201;80;20936;-71
2021/06/26 08:20:43;;;;;;;21.45;6.72;;;;;;;34.24;46.77;100173.00;1775221;80;20853;-73
2021/06/26 08:23:11;;;;;;;17.45;6.08;;;;;;;34.20;46.93;100174.62;1775335;80;21884;-75
2021/06/26 08:25:38;;;;;;;20.70;6.58;;;;;;;34.14;47.13;100171.03;1775132;80;20869;-71
2021/06/26 08:28:05;;;;;;;21.73;6.17;;;;;;;34.08;47.48;100172.02;1775546;80;20888;-70
2021/06/26 08:30:32;;;;;;;16.35;6.05;;;;;;;33.99;47.84;100172.22;1775272;80;21472;-75
2021/06/26 08:32:59;;;;;;;18.27;5.58;;;;;;;33.88;47.81;100170.48;1775578;80;20983;-77
2021/06/26 08:35:26;;;;;;;23.77;6.65;;;;;;;33.74;47.66;100158.66;1775273;80;21513;-77
2021/06/26 08:37:52;;;;;;;26.45;6.45;;;;;;;33.64;47.47;100158.03;1775453;80;21458;-72
2021/06/26 08:40:20;;;;;;;31.93;7.65;;;;;;;33.57;48.16;100152.47;1775227;80;20984;-73
2021/06/26 08:42:50;;;;;;;23.92;7.03;;;;;;;33.47;48.00;100151.83;1775199;80;21019;-72
2021/06/26 08:45:19;;;;;;;17.82;7.25;;;;;;;33.38;48.61;100145.21;1775174;80;21557;-74
2021/06/26 08:47:51;;;;;;;19.17;6.87;;;;;;;33.32;49.05;100142.14;1775442;80;21165;-71
2021/06/26 08:50:19;;;;;;;;;;;;;;;33.24;49.62;100140.17;1777812;80;21402;-72
2021/06/26 08:52:46;;;;;;;19.27;6.50;;;;;;;33.19;49.75;100131.12;1775197;80;20192;-71
2021/06/26 08:55:14;;;;;;;23.10;9.70;;;;;;;33.08;49.92;100130.72;1775130;80;20865;-72
2021/06/26 08:57:42;;;;;;;19.87;7.70;;;;;;;33.00;50.55;100132.77;1775526;80;20952;-73
2021/06/26 09:00:16;;;;;;;24.43;7.37;;;;;;;32.98;51.45;100130.03;1775349;80;21076;-73
2021/06/26 09:02:43;;;;;;;19.23;9.40;;;;;;;33.03;51.11;100126.01;1775360;80;21339;-74
2021/06/26 09:05:10;;;;;;;20.55;10.28;;;;;;;33.09;50.72;100128.30;1775662;80;20936;-73
2021/06/26 09:07:39;;;;;;;18.75;8.40;;;;;;;33.11;50.40;100129.69;1775528;80;20925;-72
2021/06/26 09:10:16;;;;;;;17.07;7.12;;;;;;;33.16;50.71;100124.84;1774606;80;21513;-74
2021/06/26 09:12:45;;;;;;;16.12;7.58;;;;;;;33.30;49.25;100122.00;1775212;80;20873;-73
2021/06/26 09:15:28;;;;;;;16.55;7.00;;;;;;;33.53;49.23;100124.14;1775331;80;20873;-74
2021/06/26 09:17:55;;;;;;;15.28;7.08;;;;;;;33.85;48.77;100114.16;1775661;80;20920;-70
2021/06/26 09:20:36;;;;;;;11.75;6.03;;;;;;;34.05;47.27;100116.77;1775268;80;21382;-72
2021/06/26 09:23:04;;;;;;;13.55;5.83;;;;;;;34.28;47.32;100109.34;1775489;80;20924;-69
2021/06/26 09:25:35;;;;;;;20.25;6.60;;;;;;;34.41;45.73;100104.25;1775303;80;21150;-78
2021/06/26 09:28:06;;;;;;;11.93;6.42;;;;;;;34.75;45.21;100105.82;1775492;80;20860;-76
2021/06/26 09:30:40;;;;;;;14.33;5.00;;;;;;;35.02;45.12;100101.59;1775381;80;21394;-68
2021/06/26 09:33:17;;;;;;;12.25;4.42;;;;;;;35.37;43.98;100091.33;1775239;80;20935;-67
2021/06/26 09:35:45;;;;;;;9.98;3.90;;;;;;;35.66;41.51;100090.34;1775525;80;20869;-66
2021/06/26 09:38:12;;;;;;;8.45;3.80;;;;;;;35.90;39.77;100089.22;1775274;80;21126;-68
2021/06/26 09:40:40;;;;;;;14.07;4.12;;;;;;;36.15;39.30;100086.23;1775343;80;20928;-68
2021/06/26 09:43:09;;;;;;;9.85;4.58;;;;;;;36.36;38.63;100088.94;1775504;80;21049;-67
2021/06/26 09:45:36;;;;;;;12.50;3.87;;;;;;;36.59;37.97;100082.04;1775346;80;20991;-66
2021/06/26 09:48:06;;;;;;;12.65;4.60;;;;;;;36.84;36.95;100081.14;1775230;80;20920;-71
2021/06/26 09:50:35;;;;;;;10.20;4.12;;;;;;;37.00;36.64;100084.61;1775163;80;21057;-73
2021/06/26 09:53:04;;;;;;;11.85;3.47;;;;;;;37.20;36.11;100072.77;1775201;80;20884;-73
2021/06/26 09:55:48;;;;;;;7.85;3.52;;;;;;;37.28;33.52;100071.63;1775357;80;21402;-73
2021/06/26 09:58:16;;;;;;;12.37;3.55;;;;;;;37.25;33.44;100068.11;1773456;80;20936;-71
2021/06/26 10:00:45;;;;;;;17.00;4.10;;;;;;;37.17;33.64;100076.09;1775715;80;21422;-70
2021/06/26 10:03:17;;;;;;;11.40;3.67;;;;;;;37.31;33.05;100066.98;1775221;80;21165;-70
2021/06/26 10:05:46;;;;;;;14.75;3.62;;;;;;;37.39;32.66;100064.73;1775263;80;20885;-70
2021/06/26 10:08:14;;;;;;;13.45;3.40;;;;;;;37.40;32.84;100060.36;1775483;80;20893;-70
2021/06/26 10:10:42;;;;;;;10.38;3.92;;;;;;;37.40;33.46;100062.25;1775304;80;20947;-72
2021/06/26 10:13:17;;;;;;;10.28;3.52;;;;;;;37.44;33.71;100060.58;1775301;80;20925;-71
2021/06/26 10:15:42;;;;;;;11.68;3.65;;;;;;;37.43;34.15;100058.41;1775361;80;21453;-69
2021/06/26 10:18:11;;;;;;;15.45;4.22;;;;;;;37.54;35.09;100061.33;1775121;80;21378;-71
2021/06/26 10:20:38;;;;;;;11.33;4.15;;;;;;;37.74;34.90;100059.00;1775505;80;20865;-69
2021/06/26 10:23:05;;;;;;;11.75;3.70;;;;;;;37.95;34.80;100056.91;1775275;80;20931;-68
2021/06/26 10:25:35;;;;;;;10.15;3.70;;;;;;;38.19;34.31;100064.36;1775215;80;21425;-68
2021/06/26 10:28:08;;;;;;;12.00;4.05;;;;;;;38.32;34.16;100058.19;1774435;80;21117;-68
2021/06/26 10:30:35;;;;;;;12.88;4.65;;;;;;;38.42;33.94;100064.13;1775470;80;20924;-68
2021/06/26 10:33:06;;;;;;;10.65;4.22;;;;;;;38.51;34.35;100061.03;1775175;80;21007;-68
2021/06/26 10:35:35;;;;;;;9.95;4.55;;;;;;;38.55;34.55;100057.97;1774812;80;20916;-68
2021/06/26 10:38:13;;;;;;;11.55;4.08;;;;;;;38.51;34.46;100063.77;1775323;80;20869;-69
2021/06/26 10:40:49;;;;;;;15.65;4.20;;;;;;;38.38;34.77;100059.48;1775260;80;21422;-68
2021/06/26 10:43:22;;;;;;;20.80;4.40;;;;;;;38.26;35.31;100056.61;1775077;80;20936;-71
2021/06/26 10:45:52;;;;;;;7.08;4.08;;;;;;;38.18;35.85;100055.05;1775255;80;20952;-75
2021/06/26 10:48:23;;;;;;;12.65;4.03;;;;;;;37.92;36.24;100063.51;1775154;80;20944;-75
2021/06/26 10:50:52;;;;;;;12.05;4.22;;;;;;;37.65;37.23;100075.78;1775667;80;20889;-78
2021/06/26 10:53:31;;;;;;;8.68;4.33;;;;;;;37.39;36.83;100071.02;1775185;80;21142;-78
2021/06/26 10:56:11;;;;;;;17.55;5.15;;;;;;;37.14;36.34;100077.47;1775490;80;20912;-84
2021/06/26 10:58:42;;;;;;;8.53;4.28;;;;;;;36.85;36.66;100074.03;1775190;80;20940;-78
2021/06/26 11:01:24;;;;;;;8.30;5.45;;;;;;;36.62;37.05;100086.97;1775165;80;20972;-77
2021/06/26 11:04:11;;;;;;;14.55;5.92;;;;;;;36.35;37.12;100080.46;1775143;80;20919;-80
2021/06/26 11:06:39;;;;;;;19.00;6.15;;;;;;;36.16;37.66;100076.95;1774876;80;21159;-78
2021/06/26 11:09:11;;;;;;;12.45;5.25;;;;;;;36.18;38.52;100077.50;1751666;81;21513;-76
2021/06/26 11:11:41;;;;;;;10.90;4.37;;;;;;;36.25;36.95;100077.22;1772835;81;21357;-75
2021/06/26 11:14:24;;;;;;;16.73;4.65;;;;;;;36.33;37.59;100076.66;1772694;80;21442;-76
2021/06/26 11:16:57;;;;;;;15.55;4.42;;;;;;;36.42;37.02;100065.96;1772887;79;20841;-77
2021/06/26 11:19:34;;;;;;;14.83;5.22;;;;;;;36.46;36.21;100064.31;1773058;81;21721;-75